sensor_id;sensor_type;location;lat;lon;timestamp;P1;durP1;ratioP1;P2;durP2;ratioP2
17650;SDS011;26663;59.302;18.082;2022-10-04T00:02:51;4.15;;;1.58;;
17650;SDS011;26663;59.302;18.082;2022-10-04T00:06:01;2.25;;;1.88;;
17650;SDS011;26663;59.302;18.082;2022-10-04T00:09:07;2.05;;;1.88;;
17650;SDS011;26663;59.302;18.082;2022-10-04T00:12:17;1.33;;;1.33;;
17650;SDS011;26663;59.302;18.082;2022-10-04T00:15:26;3.00;;;1.90;;
17650;SDS011;26663;59.302;18.082;2022-10-04T00:18:37;1.88;;;1.77;;
17650;SDS011;26663;59.302;18.082;2022-10-04T00:25:33;1.50;;;1.50;;
17650;SDS011;26663;59.302;18.082;2022-10-04T00:28:42;1.40;;;1.40;;
17650;SDS011;26663;59.302;18.082;2022-10-04T00:35:44;1.52;;;1.50;;
17650;SDS011;26663;59.302;18.082;2022-10-04T00:39:01;1.67;;;1.55;;
17650;SDS011;26663;59.302;18.082;2022-10-04T00:42:30;1.42;;;1.42;;
17650;SDS011;26663;59.302;18.082;2022-10-04T00:45:46;3.90;;;1.55;;
17650;SDS011;26663;59.302;18.082;2022-10-04T00:48:57;1.42;;;1.30;;
17650;SDS011;26663;59.302;18.082;2022-10-04T00:52:04;1.50;;;1.50;;
17650;SDS011;26663;59.302;18.082;2022-10-04T00:55:18;1.55;;;1.30;;
17650;SDS011;26663;59.302;18.082;2022-10-04T00:58:30;4.15;;;1.55;;
17650;SDS011;26663;59.302;18.082;2022-10-04T01:01:39;2.38;;;2.28;;
17650;SDS011;26663;59.302;18.082;2022-10-04T01:09:31;1.58;;;1.58;;
17650;SDS011;26663;59.302;18.082;2022-10-04T01:12:42;1.45;;;1.35;;
17650;SDS011;26663;59.302;18.082;2022-10-04T01:15:52;1.52;;;1.42;;
17650;SDS011;26663;59.302;18.082;2022-10-04T01:19:11;1.50;;;1.40;;
17650;SDS011;26663;59.302;18.082;2022-10-04T01:22:35;1.67;;;1.50;;
17650;SDS011;26663;59.302;18.082;2022-10-04T01:25:44;1.65;;;1.30;;
17650;SDS011;26663;59.302;18.082;2022-10-04T01:28:50;2.78;;;1.65;;
17650;SDS011;26663;59.302;18.082;2022-10-04T01:31:56;2.58;;;1.65;;
17650;SDS011;26663;59.302;18.082;2022-10-04T01:35:02;3.55;;;1.20;;
17650;SDS011;26663;59.302;18.082;2022-10-04T01:38:12;1.70;;;1.35;;
17650;SDS011;26663;59.302;18.082;2022-10-04T01:41:20;2.17;;;1.40;;
17650;SDS011;26663;59.302;18.082;2022-10-04T01:44:31;1.42;;;1.33;;
17650;SDS011;26663;59.302;18.082;2022-10-04T01:47:42;1.20;;;1.20;;
17650;SDS011;26663;59.302;18.082;2022-10-04T01:50:52;1.60;;;1.50;;
17650;SDS011;26663;59.302;18.082;2022-10-04T01:54:04;3.35;;;1.70;;
17650;SDS011;26663;59.302;18.082;2022-10-04T01:57:12;2.50;;;1.40;;
17650;SDS011;26663;59.302;18.082;2022-10-04T02:00:20;3.78;;;1.30;;
17650;SDS011;26663;59.302;18.082;2022-10-04T02:03:26;1.33;;;1.23;;
17650;SDS011;26663;59.302;18.082;2022-10-04T02:06:36;2.28;;;1.20;;
17650;SDS011;26663;59.302;18.082;2022-10-04T02:09:47;1.20;;;1.17;;
17650;SDS011;26663;59.302;18.082;2022-10-04T02:12:57;1.30;;;1.20;;
17650;SDS011;26663;59.302;18.082;2022-10-04T02:16:07;1.80;;;1.30;;
17650;SDS011;26663;59.302;18.082;2022-10-04T02:19:12;1.40;;;1.30;;
17650;SDS011;26663;59.302;18.082;2022-10-04T02:22:18;2.47;;;1.35;;
17650;SDS011;26663;59.302;18.082;2022-10-04T02:25:25;1.10;;;1.10;;
17650;SDS011;26663;59.302;18.082;2022-10-04T02:28:31;1.77;;;1.30;;
17650;SDS011;26663;59.302;18.082;2022-10-04T02:31:36;5.05;;;1.30;;
17650;SDS011;26663;59.302;18.082;2022-10-04T02:34:59;1.27;;;1.27;;
17650;SDS011;26663;59.302;18.082;2022-10-04T02:38:08;1.45;;;1.40;;
17650;SDS011;26663;59.302;18.082;2022-10-04T02:41:19;2.45;;;1.10;;
17650;SDS011;26663;59.302;18.082;2022-10-04T02:44:28;4.70;;;1.48;;
17650;SDS011;26663;59.302;18.082;2022-10-04T02:47:36;2.83;;;1.45;;
17650;SDS011;26663;59.302;18.082;2022-10-04T02:50:48;1.10;;;1.10;;
17650;SDS011;26663;59.302;18.082;2022-10-04T02:53:56;5.05;;;1.00;;
17650;SDS011;26663;59.302;18.082;2022-10-04T02:57:13;1.10;;;1.10;;
17650;SDS011;26663;59.302;18.082;2022-10-04T03:00:20;5.05;;;1.30;;
17650;SDS011;26663;59.302;18.082;2022-10-04T03:03:28;1.27;;;1.23;;
17650;SDS011;26663;59.302;18.082;2022-10-04T03:06:36;1.65;;;1.27;;
17650;SDS011;26663;59.302;18.082;2022-10-04T03:09:41;1.23;;;1.20;;
17650;SDS011;26663;59.302;18.082;2022-10-04T03:12:49;2.92;;;1.30;;
17650;SDS011;26663;59.302;18.082;2022-10-04T03:15:55;1.48;;;1.13;;
17650;SDS011;26663;59.302;18.082;2022-10-04T03:19:00;2.10;;;1.15;;
17650;SDS011;26663;59.302;18.082;2022-10-04T03:22:06;2.90;;;1.20;;
17650;SDS011;26663;59.302;18.082;2022-10-04T03:25:13;1.23;;;1.23;;
17650;SDS011;26663;59.302;18.082;2022-10-04T03:28:25;2.03;;;1.23;;
17650;SDS011;26663;59.302;18.082;2022-10-04T03:31:30;3.15;;;1.65;;
17650;SDS011;26663;59.302;18.082;2022-10-04T03:34:37;3.22;;;1.13;;
17650;SDS011;26663;59.302;18.082;2022-10-04T03:37:43;1.30;;;1.20;;
17650;SDS011;26663;59.302;18.082;2022-10-04T03:40:49;1.20;;;1.20;;
17650;SDS011;26663;59.302;18.082;2022-10-04T03:43:58;1.73;;;1.15;;
17650;SDS011;26663;59.302;18.082;2022-10-04T03:47:07;1.55;;;1.35;;
17650;SDS011;26663;59.302;18.082;2022-10-04T03:50:14;2.70;;;1.25;;
17650;SDS011;26663;59.302;18.082;2022-10-04T03:53:26;5.53;;;1.40;;
17650;SDS011;26663;59.302;18.082;2022-10-04T03:56:34;1.90;;;1.50;;
17650;SDS011;26663;59.302;18.082;2022-10-04T03:59:41;1.55;;;1.10;;
17650;SDS011;26663;59.302;18.082;2022-10-04T04:02:47;1.98;;;1.10;;
17650;SDS011;26663;59.302;18.082;2022-10-04T04:05:56;1.23;;;1.23;;
17650;SDS011;26663;59.302;18.082;2022-10-04T04:09:03;3.35;;;1.20;;
17650;SDS011;26663;59.302;18.082;2022-10-04T04:12:10;1.10;;;1.10;;
17650;SDS011;26663;59.302;18.082;2022-10-04T04:15:21;1.17;;;1.17;;
17650;SDS011;26663;59.302;18.082;2022-10-04T04:18:28;5.55;;;1.40;;
17650;SDS011;26663;59.302;18.082;2022-10-04T04:21:35;3.65;;;1.23;;
17650;SDS011;26663;59.302;18.082;2022-10-04T04:24:40;2.05;;;1.40;;
17650;SDS011;26663;59.302;18.082;2022-10-04T04:27:46;4.57;;;1.20;;
17650;SDS011;26663;59.302;18.082;2022-10-04T04:31:01;4.35;;;1.48;;
17650;SDS011;26663;59.302;18.082;2022-10-04T04:34:14;1.33;;;1.33;;
17650;SDS011;26663;59.302;18.082;2022-10-04T04:37:22;2.28;;;1.40;;
17650;SDS011;26663;59.302;18.082;2022-10-04T04:40:27;3.85;;;1.27;;
17650;SDS011;26663;59.302;18.082;2022-10-04T04:43:32;1.13;;;1.00;;
17650;SDS011;26663;59.302;18.082;2022-10-04T04:46:39;3.28;;;1.30;;
17650;SDS011;26663;59.302;18.082;2022-10-04T04:49:45;1.85;;;1.30;;
17650;SDS011;26663;59.302;18.082;2022-10-04T04:52:51;2.75;;;1.20;;
17650;SDS011;26663;59.302;18.082;2022-10-04T04:55:58;4.05;;;1.23;;
17650;SDS011;26663;59.302;18.082;2022-10-04T04:59:07;2.15;;;1.70;;
17650;SDS011;26663;59.302;18.082;2022-10-04T05:02:27;1.45;;;1.30;;
17650;SDS011;26663;59.302;18.082;2022-10-04T05:05:34;1.35;;;1.08;;
17650;SDS011;26663;59.302;18.082;2022-10-04T05:08:47;1.13;;;1.10;;
17650;SDS011;26663;59.302;18.082;2022-10-04T05:11:53;2.67;;;1.85;;
17650;SDS011;26663;59.302;18.082;2022-10-04T05:15:02;3.90;;;1.48;;
17650;SDS011;26663;59.302;18.082;2022-10-04T05:18:20;2.42;;;1.30;;
17650;SDS011;26663;59.302;18.082;2022-10-04T05:21:32;1.17;;;1.00;;
17650;SDS011;26663;59.302;18.082;2022-10-04T05:24:44;3.42;;;1.30;;
17650;SDS011;26663;59.302;18.082;2022-10-04T05:27:51;1.92;;;1.10;;
17650;SDS011;26663;59.302;18.082;2022-10-04T05:31:09;1.73;;;1.15;;
17650;SDS011;26663;59.302;18.082;2022-10-04T05:34:35;4.57;;;1.70;;
17650;SDS011;26663;59.302;18.082;2022-10-04T05:37:44;1.25;;;1.05;;
17650;SDS011;26663;59.302;18.082;2022-10-04T05:41:05;3.10;;;1.20;;
17650;SDS011;26663;59.302;18.082;2022-10-04T05:44:19;5.25;;;1.23;;
17650;SDS011;26663;59.302;18.082;2022-10-04T05:47:29;2.15;;;1.13;;
17650;SDS011;26663;59.302;18.082;2022-10-04T05:50:36;2.42;;;1.38;;
17650;SDS011;26663;59.302;18.082;2022-10-04T05:53:42;3.80;;;1.45;;
17650;SDS011;26663;59.302;18.082;2022-10-04T05:56:52;1.30;;;1.20;;
17650;SDS011;26663;59.302;18.082;2022-10-04T06:00:34;3.55;;;1.40;;
17650;SDS011;26663;59.302;18.082;2022-10-04T06:04:00;3.90;;;1.15;;
17650;SDS011;26663;59.302;18.082;2022-10-04T06:07:33;3.50;;;1.20;;
17650;SDS011;26663;59.302;18.082;2022-10-04T06:10:48;2.47;;;1.40;;
17650;SDS011;26663;59.302;18.082;2022-10-04T06:14:15;5.60;;;1.63;;
17650;SDS011;26663;59.302;18.082;2022-10-04T06:17:42;3.35;;;1.20;;
17650;SDS011;26663;59.302;18.082;2022-10-04T06:21:05;2.13;;;1.27;;
17650;SDS011;26663;59.302;18.082;2022-10-04T06:24:25;2.65;;;1.38;;
17650;SDS011;26663;59.302;18.082;2022-10-04T06:27:34;2.50;;;1.30;;
17650;SDS011;26663;59.302;18.082;2022-10-04T06:30:48;1.30;;;1.20;;
17650;SDS011;26663;59.302;18.082;2022-10-04T06:34:26;3.35;;;1.40;;
17650;SDS011;26663;59.302;18.082;2022-10-04T06:45:48;5.57;;;1.25;;
17650;SDS011;26663;59.302;18.082;2022-10-04T06:49:13;2.92;;;1.30;;
17650;SDS011;26663;59.302;18.082;2022-10-04T06:52:40;2.10;;;1.30;;
17650;SDS011;26663;59.302;18.082;2022-10-04T06:56:17;1.17;;;1.10;;
17650;SDS011;26663;59.302;18.082;2022-10-04T06:59:38;2.25;;;1.20;;
17650;SDS011;26663;59.302;18.082;2022-10-04T07:03:00;5.10;;;1.75;;
17650;SDS011;26663;59.302;18.082;2022-10-04T07:06:11;4.93;;;1.55;;
17650;SDS011;26663;59.302;18.082;2022-10-04T07:09:18;2.22;;;1.20;;
17650;SDS011;26663;59.302;18.082;2022-10-04T07:12:26;1.30;;;1.20;;
17650;SDS011;26663;59.302;18.082;2022-10-04T07:15:35;1.40;;;1.17;;
17650;SDS011;26663;59.302;18.082;2022-10-04T07:18:51;2.83;;;1.40;;
17650;SDS011;26663;59.302;18.082;2022-10-04T07:22:09;5.75;;;1.42;;
17650;SDS011;26663;59.302;18.082;2022-10-04T07:25:20;5.03;;;1.35;;
17650;SDS011;26663;59.302;18.082;2022-10-04T07:28:31;4.38;;;1.20;;
17650;SDS011;26663;59.302;18.082;2022-10-04T07:32:06;1.58;;;1.20;;
17650;SDS011;26663;59.302;18.082;2022-10-04T07:35:18;3.13;;;1.35;;
17650;SDS011;26663;59.302;18.082;2022-10-04T07:38:35;1.75;;;1.10;;
17650;SDS011;26663;59.302;18.082;2022-10-04T07:41:44;1.95;;;1.30;;
17650;SDS011;26663;59.302;18.082;2022-10-04T07:45:04;3.42;;;1.10;;
17650;SDS011;26663;59.302;18.082;2022-10-04T07:48:19;1.90;;;1.02;;
17650;SDS011;26663;59.302;18.082;2022-10-04T07:51:28;2.08;;;1.35;;
17650;SDS011;26663;59.302;18.082;2022-10-04T07:54:39;1.30;;;1.20;;
17650;SDS011;26663;59.302;18.082;2022-10-04T07:58:00;1.90;;;1.20;;
17650;SDS011;26663;59.302;18.082;2022-10-04T08:01:18;1.20;;;1.20;;
17650;SDS011;26663;59.302;18.082;2022-10-04T08:04:35;4.95;;;1.42;;
17650;SDS011;26663;59.302;18.082;2022-10-04T08:07:51;1.33;;;1.17;;
17650;SDS011;26663;59.302;18.082;2022-10-04T08:11:18;2.42;;;1.15;;
17650;SDS011;26663;59.302;18.082;2022-10-04T08:14:35;1.83;;;1.30;;
17650;SDS011;26663;59.302;18.082;2022-10-04T08:17:56;2.83;;;1.20;;
17650;SDS011;26663;59.302;18.082;2022-10-04T08:21:07;4.78;;;1.30;;
17650;SDS011;26663;59.302;18.082;2022-10-04T08:24:18;4.38;;;2.13;;
17650;SDS011;26663;59.302;18.082;2022-10-04T08:27:40;2.70;;;1.92;;
17650;SDS011;26663;59.302;18.082;2022-10-04T08:31:17;5.97;;;2.40;;
17650;SDS011;26663;59.302;18.082;2022-10-04T08:34:38;5.00;;;1.85;;
17650;SDS011;26663;59.302;18.082;2022-10-04T08:38:14;9.50;;;3.40;;
17650;SDS011;26663;59.302;18.082;2022-10-04T08:42:05;3.30;;;2.50;;
17650;SDS011;26663;59.302;18.082;2022-10-04T08:49:56;3.65;;;1.90;;
17650;SDS011;26663;59.302;18.082;2022-10-04T08:58:17;5.70;;;2.00;;
17650;SDS011;26663;59.302;18.082;2022-10-04T09:01:56;1.60;;;1.50;;
17650;SDS011;26663;59.302;18.082;2022-10-04T09:05:24;6.43;;;1.35;;
17650;SDS011;26663;59.302;18.082;2022-10-04T09:16:44;1.50;;;1.40;;
17650;SDS011;26663;59.302;18.082;2022-10-04T09:19:52;2.05;;;1.23;;
17650;SDS011;26663;59.302;18.082;2022-10-04T09:27:20;2.95;;;1.45;;
17650;SDS011;26663;59.302;18.082;2022-10-04T09:31:03;4.25;;;1.83;;
17650;SDS011;26663;59.302;18.082;2022-10-04T09:34:36;4.82;;;1.58;;
17650;SDS011;26663;59.302;18.082;2022-10-04T09:37:58;3.88;;;1.30;;
17650;SDS011;26663;59.302;18.082;2022-10-04T09:41:21;1.35;;;1.10;;
17650;SDS011;26663;59.302;18.082;2022-10-04T09:48:25;4.43;;;1.42;;
17650;SDS011;26663;59.302;18.082;2022-10-04T09:51:42;1.17;;;1.08;;
17650;SDS011;26663;59.302;18.082;2022-10-04T09:55:12;6.13;;;4.43;;
17650;SDS011;26663;59.302;18.082;2022-10-04T09:58:43;2.90;;;2.70;;
17650;SDS011;26663;59.302;18.082;2022-10-04T10:02:19;5.20;;;2.40;;
17650;SDS011;26663;59.302;18.082;2022-10-04T10:06:02;2.53;;;1.42;;
17650;SDS011;26663;59.302;18.082;2022-10-04T10:09:35;7.93;;;1.60;;
17650;SDS011;26663;59.302;18.082;2022-10-04T10:13:02;5.38;;;1.38;;
17650;SDS011;26663;59.302;18.082;2022-10-04T10:16:50;2.08;;;0.90;;
17650;SDS011;26663;59.302;18.082;2022-10-04T10:20:08;2.53;;;1.10;;
17650;SDS011;26663;59.302;18.082;2022-10-04T10:23:46;4.47;;;1.20;;
17650;SDS011;26663;59.302;18.082;2022-10-04T10:27:18;2.13;;;1.23;;
17650;SDS011;26663;59.302;18.082;2022-10-04T10:30:46;4.20;;;1.35;;
17650;SDS011;26663;59.302;18.082;2022-10-04T10:34:19;3.55;;;1.05;;
17650;SDS011;26663;59.302;18.082;2022-10-04T10:37:49;6.00;;;1.27;;
17650;SDS011;26663;59.302;18.082;2022-10-04T10:45:18;3.25;;;1.20;;
17650;SDS011;26663;59.302;18.082;2022-10-04T10:48:41;3.80;;;1.10;;
17650;SDS011;26663;59.302;18.082;2022-10-04T10:52:12;3.88;;;1.30;;
17650;SDS011;26663;59.302;18.082;2022-10-04T11:00:07;3.92;;;1.30;;
17650;SDS011;26663;59.302;18.082;2022-10-04T11:03:35;1.30;;;1.10;;
17650;SDS011;26663;59.302;18.082;2022-10-04T11:07:23;1.52;;;1.13;;
17650;SDS011;26663;59.302;18.082;2022-10-04T11:10:59;9.90;;;1.55;;
17650;SDS011;26663;59.302;18.082;2022-10-04T11:14:29;3.95;;;1.80;;
17650;SDS011;26663;59.302;18.082;2022-10-04T11:21:52;1.48;;;1.00;;
17650;SDS011;26663;59.302;18.082;2022-10-04T11:25:54;2.88;;;1.10;;
17650;SDS011;26663;59.302;18.082;2022-10-04T11:29:12;2.80;;;1.20;;
17650;SDS011;26663;59.302;18.082;2022-10-04T11:36:41;1.95;;;1.63;;
17650;SDS011;26663;59.302;18.082;2022-10-04T11:40:06;4.03;;;1.20;;
17650;SDS011;26663;59.302;18.082;2022-10-04T11:43:35;1.55;;;1.27;;
17650;SDS011;26663;59.302;18.082;2022-10-04T11:46:55;3.25;;;1.10;;
17650;SDS011;26663;59.302;18.082;2022-10-04T11:50:17;1.40;;;1.13;;
17650;SDS011;26663;59.302;18.082;2022-10-04T11:57:38;6.38;;;1.20;;
17650;SDS011;26663;59.302;18.082;2022-10-04T12:00:53;3.50;;;1.17;;
17650;SDS011;26663;59.302;18.082;2022-10-04T12:04:39;2.35;;;1.23;;
17650;SDS011;26663;59.302;18.082;2022-10-04T12:08:18;3.33;;;1.23;;
17650;SDS011;26663;59.302;18.082;2022-10-04T12:11:40;2.80;;;1.05;;
17650;SDS011;26663;59.302;18.082;2022-10-04T12:15:37;1.23;;;1.23;;
17650;SDS011;26663;59.302;18.082;2022-10-04T12:18:56;2.80;;;1.00;;
17650;SDS011;26663;59.302;18.082;2022-10-04T12:26:27;1.95;;;1.13;;
17650;SDS011;26663;59.302;18.082;2022-10-04T12:29:58;4.32;;;1.20;;
17650;SDS011;26663;59.302;18.082;2022-10-04T12:33:26;2.88;;;1.10;;
17650;SDS011;26663;59.302;18.082;2022-10-04T12:36:41;1.42;;;1.20;;
17650;SDS011;26663;59.302;18.082;2022-10-04T12:40:16;0.85;;;0.85;;
17650;SDS011;26663;59.302;18.082;2022-10-04T12:43:29;3.30;;;0.88;;
17650;SDS011;26663;59.302;18.082;2022-10-04T12:46:42;3.95;;;1.02;;
17650;SDS011;26663;59.302;18.082;2022-10-04T12:50:01;1.80;;;1.38;;
17650;SDS011;26663;59.302;18.082;2022-10-04T12:53:17;1.35;;;1.05;;
17650;SDS011;26663;59.302;18.082;2022-10-04T12:56:40;3.75;;;1.23;;
17650;SDS011;26663;59.302;18.082;2022-10-04T12:59:52;3.65;;;1.17;;
17650;SDS011;26663;59.302;18.082;2022-10-04T13:03:07;3.13;;;0.90;;
17650;SDS011;26663;59.302;18.082;2022-10-04T13:06:25;0.63;;;0.63;;
17650;SDS011;26663;59.302;18.082;2022-10-04T13:09:46;1.85;;;0.90;;
17650;SDS011;26663;59.302;18.082;2022-10-04T13:13:26;2.03;;;0.93;;
17650;SDS011;26663;59.302;18.082;2022-10-04T13:16:53;0.90;;;0.70;;
17650;SDS011;26663;59.302;18.082;2022-10-04T13:20:30;2.95;;;0.70;;
17650;SDS011;26663;59.302;18.082;2022-10-04T13:23:56;1.05;;;0.90;;
17650;SDS011;26663;59.302;18.082;2022-10-04T13:27:08;1.45;;;0.70;;
17650;SDS011;26663;59.302;18.082;2022-10-04T13:30:19;4.35;;;0.90;;
17650;SDS011;26663;59.302;18.082;2022-10-04T13:33:28;2.13;;;1.13;;
17650;SDS011;26663;59.302;18.082;2022-10-04T13:36:44;3.13;;;1.00;;
17650;SDS011;26663;59.302;18.082;2022-10-04T13:44:00;16.20;;;1.15;;
17650;SDS011;26663;59.302;18.082;2022-10-04T13:51:02;2.95;;;0.90;;
17650;SDS011;26663;59.302;18.082;2022-10-04T13:54:27;3.80;;;1.08;;
17650;SDS011;26663;59.302;18.082;2022-10-04T13:57:56;1.35;;;1.00;;
17650;SDS011;26663;59.302;18.082;2022-10-04T14:05:28;3.50;;;1.10;;
17650;SDS011;26663;59.302;18.082;2022-10-04T14:20:37;3.72;;;1.02;;
17650;SDS011;26663;59.302;18.082;2022-10-04T14:24:41;8.95;;;1.10;;
17650;SDS011;26663;59.302;18.082;2022-10-04T14:28:35;1.60;;;1.50;;
17650;SDS011;26663;59.302;18.082;2022-10-04T14:32:43;2.08;;;1.35;;
17650;SDS011;26663;59.302;18.082;2022-10-04T14:36:30;7.75;;;1.20;;
17650;SDS011;26663;59.302;18.082;2022-10-04T14:39:58;1.80;;;1.00;;
17650;SDS011;26663;59.302;18.082;2022-10-04T14:43:43;3.95;;;1.20;;
17650;SDS011;26663;59.302;18.082;2022-10-04T14:51:01;11.05;;;1.45;;
17650;SDS011;26663;59.302;18.082;2022-10-04T14:54:30;2.45;;;1.58;;
17650;SDS011;26663;59.302;18.082;2022-10-04T14:58:00;5.55;;;1.38;;
17650;SDS011;26663;59.302;18.082;2022-10-04T15:01:18;5.78;;;1.17;;
17650;SDS011;26663;59.302;18.082;2022-10-04T15:04:28;6.88;;;1.80;;
17650;SDS011;26663;59.302;18.082;2022-10-04T15:07:38;8.02;;;1.60;;
17650;SDS011;26663;59.302;18.082;2022-10-04T15:10:49;3.88;;;1.42;;
17650;SDS011;26663;59.302;18.082;2022-10-04T15:13:56;8.18;;;1.50;;
17650;SDS011;26663;59.302;18.082;2022-10-04T15:17:08;7.88;;;1.77;;
17650;SDS011;26663;59.302;18.082;2022-10-04T15:20:19;3.63;;;1.38;;
17650;SDS011;26663;59.302;18.082;2022-10-04T15:23:34;1.33;;;1.33;;
17650;SDS011;26663;59.302;18.082;2022-10-04T15:26:47;9.18;;;1.70;;
17650;SDS011;26663;59.302;18.082;2022-10-04T15:30:27;6.57;;;1.70;;
17650;SDS011;26663;59.302;18.082;2022-10-04T15:33:39;3.17;;;1.40;;
17650;SDS011;26663;59.302;18.082;2022-10-04T15:36:56;4.20;;;1.60;;
17650;SDS011;26663;59.302;18.082;2022-10-04T15:40:14;4.50;;;2.00;;
17650;SDS011;26663;59.302;18.082;2022-10-04T15:43:48;3.03;;;1.40;;
17650;SDS011;26663;59.302;18.082;2022-10-04T15:47:18;6.35;;;1.60;;
17650;SDS011;26663;59.302;18.082;2022-10-04T15:50:25;2.72;;;1.48;;
17650;SDS011;26663;59.302;18.082;2022-10-04T15:57:16;3.40;;;1.48;;
17650;SDS011;26663;59.302;18.082;2022-10-04T16:00:38;3.03;;;1.30;;
17650;SDS011;26663;59.302;18.082;2022-10-04T16:04:17;1.75;;;1.65;;
17650;SDS011;26663;59.302;18.082;2022-10-04T16:07:51;2.13;;;1.77;;
17650;SDS011;26663;59.302;18.082;2022-10-04T16:11:15;2.25;;;1.70;;
17650;SDS011;26663;59.302;18.082;2022-10-04T16:14:53;2.40;;;2.00;;
17650;SDS011;26663;59.302;18.082;2022-10-04T16:18:29;7.53;;;2.58;;
17650;SDS011;26663;59.302;18.082;2022-10-04T16:21:46;6.78;;;2.13;;
17650;SDS011;26663;59.302;18.082;2022-10-04T16:24:56;3.53;;;2.00;;
17650;SDS011;26663;59.302;18.082;2022-10-04T16:28:05;3.38;;;2.13;;
17650;SDS011;26663;59.302;18.082;2022-10-04T16:31:24;8.27;;;2.20;;
17650;SDS011;26663;59.302;18.082;2022-10-04T16:34:45;5.57;;;1.77;;
17650;SDS011;26663;59.302;18.082;2022-10-04T16:37:55;5.35;;;1.80;;
17650;SDS011;26663;59.302;18.082;2022-10-04T16:41:09;2.60;;;1.80;;
17650;SDS011;26663;59.302;18.082;2022-10-04T16:44:26;3.85;;;1.70;;
17650;SDS011;26663;59.302;18.082;2022-10-04T16:47:37;1.70;;;1.60;;
17650;SDS011;26663;59.302;18.082;2022-10-04T16:50:57;1.60;;;1.60;;
17650;SDS011;26663;59.302;18.082;2022-10-04T17:02:12;2.88;;;1.83;;
17650;SDS011;26663;59.302;18.082;2022-10-04T17:06:00;7.82;;;1.58;;
17650;SDS011;26663;59.302;18.082;2022-10-04T17:09:17;1.92;;;1.70;;
17650;SDS011;26663;59.302;18.082;2022-10-04T17:12:28;4.88;;;2.05;;
17650;SDS011;26663;59.302;18.082;2022-10-04T17:15:45;8.18;;;2.00;;
17650;SDS011;26663;59.302;18.082;2022-10-04T17:19:04;9.27;;;2.00;;
17650;SDS011;26663;59.302;18.082;2022-10-04T17:22:21;7.80;;;2.20;;
17650;SDS011;26663;59.302;18.082;2022-10-04T17:25:36;2.67;;;2.20;;
17650;SDS011;26663;59.302;18.082;2022-10-04T17:28:47;8.27;;;1.90;;
17650;SDS011;26663;59.302;18.082;2022-10-04T17:32:02;3.63;;;2.30;;
17650;SDS011;26663;59.302;18.082;2022-10-04T17:35:42;7.03;;;2.92;;
17650;SDS011;26663;59.302;18.082;2022-10-04T17:39:10;8.35;;;2.75;;
17650;SDS011;26663;59.302;18.082;2022-10-04T17:42:28;6.10;;;2.80;;
17650;SDS011;26663;59.302;18.082;2022-10-04T17:45:47;4.40;;;2.90;;
17650;SDS011;26663;59.302;18.082;2022-10-04T17:49:01;11.95;;;2.67;;
17650;SDS011;26663;59.302;18.082;2022-10-04T17:52:33;4.13;;;2.70;;
17650;SDS011;26663;59.302;18.082;2022-10-04T17:56:05;7.43;;;2.30;;
17650;SDS011;26663;59.302;18.082;2022-10-04T17:59:11;4.80;;;2.30;;
17650;SDS011;26663;59.302;18.082;2022-10-04T18:02:21;3.90;;;2.40;;
17650;SDS011;26663;59.302;18.082;2022-10-04T18:05:34;3.00;;;2.20;;
17650;SDS011;26663;59.302;18.082;2022-10-04T18:08:52;4.13;;;2.22;;
17650;SDS011;26663;59.302;18.082;2022-10-04T18:12:02;5.30;;;2.28;;
17650;SDS011;26663;59.302;18.082;2022-10-04T18:15:14;3.22;;;2.15;;
17650;SDS011;26663;59.302;18.082;2022-10-04T18:18:26;2.10;;;2.00;;
17650;SDS011;26663;59.302;18.082;2022-10-04T18:21:32;2.25;;;2.00;;
17650;SDS011;26663;59.302;18.082;2022-10-04T18:24:39;5.32;;;1.98;;
17650;SDS011;26663;59.302;18.082;2022-10-04T18:27:48;6.10;;;2.50;;
17650;SDS011;26663;59.302;18.082;2022-10-04T18:30:56;8.45;;;2.40;;
17650;SDS011;26663;59.302;18.082;2022-10-04T18:34:16;2.97;;;1.90;;
17650;SDS011;26663;59.302;18.082;2022-10-04T18:37:31;4.30;;;1.92;;
17650;SDS011;26663;59.302;18.082;2022-10-04T18:40:41;2.40;;;2.30;;
17650;SDS011;26663;59.302;18.082;2022-10-04T18:44:04;6.10;;;1.90;;
17650;SDS011;26663;59.302;18.082;2022-10-04T18:47:17;4.90;;;2.22;;
17650;SDS011;26663;59.302;18.082;2022-10-04T18:50:34;2.17;;;1.83;;
17650;SDS011;26663;59.302;18.082;2022-10-04T18:53:45;3.90;;;1.60;;
17650;SDS011;26663;59.302;18.082;2022-10-04T18:56:55;2.95;;;2.00;;
17650;SDS011;26663;59.302;18.082;2022-10-04T19:00:10;4.50;;;1.98;;
17650;SDS011;26663;59.302;18.082;2022-10-04T19:03:35;5.55;;;1.70;;
17650;SDS011;26663;59.302;18.082;2022-10-04T19:06:46;3.15;;;1.75;;
17650;SDS011;26663;59.302;18.082;2022-10-04T19:13:24;3.50;;;2.03;;
17650;SDS011;26663;59.302;18.082;2022-10-04T19:16:39;1.73;;;1.70;;
17650;SDS011;26663;59.302;18.082;2022-10-04T19:19:52;4.35;;;2.00;;
17650;SDS011;26663;59.302;18.082;2022-10-04T19:23:08;3.45;;;2.30;;
17650;SDS011;26663;59.302;18.082;2022-10-04T19:26:28;11.63;;;1.92;;
17650;SDS011;26663;59.302;18.082;2022-10-04T19:29:49;4.10;;;1.70;;
17650;SDS011;26663;59.302;18.082;2022-10-04T19:33:17;4.32;;;2.17;;
17650;SDS011;26663;59.302;18.082;2022-10-04T19:36:30;6.38;;;2.10;;
17650;SDS011;26663;59.302;18.082;2022-10-04T19:39:49;2.88;;;1.50;;
17650;SDS011;26663;59.302;18.082;2022-10-04T19:43:03;7.72;;;1.50;;
17650;SDS011;26663;59.302;18.082;2022-10-04T19:46:20;3.65;;;1.63;;
17650;SDS011;26663;59.302;18.082;2022-10-04T19:49:41;1.90;;;1.80;;
17650;SDS011;26663;59.302;18.082;2022-10-04T19:52:57;8.90;;;1.80;;
17650;SDS011;26663;59.302;18.082;2022-10-04T19:56:12;1.90;;;1.80;;
17650;SDS011;26663;59.302;18.082;2022-10-04T19:59:28;4.53;;;1.80;;
17650;SDS011;26663;59.302;18.082;2022-10-04T20:02:45;4.28;;;1.80;;
17650;SDS011;26663;59.302;18.082;2022-10-04T20:05:59;5.35;;;1.95;;
17650;SDS011;26663;59.302;18.082;2022-10-04T20:09:20;2.10;;;1.85;;
17650;SDS011;26663;59.302;18.082;2022-10-04T20:12:34;3.95;;;2.00;;
17650;SDS011;26663;59.302;18.082;2022-10-04T20:15:45;3.03;;;2.13;;
17650;SDS011;26663;59.302;18.082;2022-10-04T20:18:59;5.10;;;2.13;;
17650;SDS011;26663;59.302;18.082;2022-10-04T20:22:26;2.53;;;1.88;;
17650;SDS011;26663;59.302;18.082;2022-10-04T20:25:58;3.78;;;3.47;;
17650;SDS011;26663;59.302;18.082;2022-10-04T20:29:12;3.90;;;3.55;;
17650;SDS011;26663;59.302;18.082;2022-10-04T20:36:57;4.18;;;2.22;;
17650;SDS011;26663;59.302;18.082;2022-10-04T20:40:04;4.88;;;2.00;;
17650;SDS011;26663;59.302;18.082;2022-10-04T20:43:23;5.50;;;1.85;;
17650;SDS011;26663;59.302;18.082;2022-10-04T20:46:32;2.85;;;1.70;;
17650;SDS011;26663;59.302;18.082;2022-10-04T20:49:42;3.83;;;1.88;;
17650;SDS011;26663;59.302;18.082;2022-10-04T20:52:52;5.78;;;2.58;;
17650;SDS011;26663;59.302;18.082;2022-10-04T20:56:07;2.95;;;1.95;;
17650;SDS011;26663;59.302;18.082;2022-10-04T20:59:21;3.53;;;2.13;;
17650;SDS011;26663;59.302;18.082;2022-10-04T21:02:28;7.43;;;2.10;;
17650;SDS011;26663;59.302;18.082;2022-10-04T21:05:36;7.32;;;2.08;;
17650;SDS011;26663;59.302;18.082;2022-10-04T21:08:43;2.58;;;2.38;;
17650;SDS011;26663;59.302;18.082;2022-10-04T21:11:49;4.65;;;1.90;;
17650;SDS011;26663;59.302;18.082;2022-10-04T21:15:06;3.65;;;2.00;;
17650;SDS011;26663;59.302;18.082;2022-10-04T21:18:22;2.30;;;2.10;;
17650;SDS011;26663;59.302;18.082;2022-10-04T21:24:54;3.67;;;1.90;;
17650;SDS011;26663;59.302;18.082;2022-10-04T21:31:41;3.65;;;2.00;;
17650;SDS011;26663;59.302;18.082;2022-10-04T21:34:47;5.13;;;2.13;;
17650;SDS011;26663;59.302;18.082;2022-10-04T21:37:56;3.63;;;2.45;;